createdAt,value
2019-03-22T09:32:06.363Z,12.40
2019-03-22T12:02:22.520Z,15.10
2019-03-22T12:04:52.126Z,17.20
2019-03-22T12:07:23.203Z,17.20
2019-03-22T12:09:54.099Z,17.10
2019-03-22T12:12:24.960Z,17.20
2019-03-22T12:14:55.954Z,17.20
2019-03-22T12:17:26.798Z,17.20
2019-03-22T12:19:57.608Z,17.30
2019-03-22T12:22:28.804Z,17.30
2019-03-22T12:24:59.604Z,17.30
2019-03-22T12:27:36.455Z,17.30
2019-03-22T12:30:02.983Z,17.30
2019-03-22T12:32:34.105Z,17.40
2019-03-22T12:35:05.938Z,17.40
2019-03-22T12:37:36.975Z,17.40
2019-03-22T12:40:08.694Z,17.50
2019-03-22T12:42:39.632Z,17.50
2019-03-22T12:45:15.429Z,17.50
2019-03-22T12:47:46.203Z,17.60
2019-03-22T12:50:17.177Z,17.50
2019-03-22T12:52:48.106Z,17.50
2019-03-22T12:55:21.243Z,17.40
2019-03-22T12:57:52.274Z,17.50
2019-03-22T13:00:23.317Z,17.40
2019-03-22T13:02:54.794Z,17.50
2019-03-22T13:05:25.874Z,17.40
2019-03-22T13:07:58.045Z,17.60
2019-03-22T13:10:29.364Z,17.60
2019-03-22T13:13:00.271Z,17.70
2019-03-22T13:15:31.226Z,17.70
2019-03-22T13:18:02.195Z,17.80
2019-03-22T13:20:32.987Z,17.80
2019-03-22T13:23:03.906Z,17.90
2019-03-22T13:25:36.314Z,17.90
2019-03-22T13:28:07.368Z,17.90
2019-03-22T13:30:38.325Z,17.80
2019-03-22T13:33:09.118Z,17.80
2019-03-22T13:35:40.032Z,17.90
2019-03-22T13:38:11.310Z,18.00
2019-03-22T13:40:42.180Z,18.00
2019-03-22T13:43:12.999Z,18.10
2019-03-22T13:45:44.110Z,18.20
2019-03-22T13:48:14.960Z,18.20
2019-03-22T13:50:45.848Z,18.30
2019-03-22T13:53:16.889Z,18.40
2019-03-22T13:55:47.755Z,18.50
2019-03-22T13:58:18.583Z,18.60
2019-03-22T14:00:49.532Z,18.80
2019-03-22T14:03:20.526Z,18.90
2019-03-22T14:05:51.442Z,18.90
2019-03-22T14:08:22.326Z,19.00
2019-03-22T14:10:53.174Z,19.00
2019-03-22T14:13:23.970Z,19.10
2019-03-22T14:15:54.739Z,19.10
2019-03-22T14:18:25.619Z,19.10
2019-03-22T14:20:56.556Z,19.20
2019-03-22T14:23:27.681Z,19.20
2019-03-22T14:25:58.497Z,19.30
2019-03-22T14:28:29.314Z,19.50
2019-03-22T14:31:00.412Z,19.60
2019-03-22T14:33:31.384Z,19.60
2019-03-22T14:36:02.162Z,19.70
2019-03-22T14:38:33.092Z,19.80
2019-03-22T14:41:03.934Z,19.90
2019-03-22T14:43:34.913Z,19.90
2019-03-22T14:46:05.786Z,19.90
2019-03-22T14:48:36.559Z,20.00
2019-03-22T14:51:07.354Z,20.00
2019-03-22T14:53:39.706Z,20.00
2019-03-22T14:56:10.471Z,19.90
2019-03-22T14:58:41.239Z,20.20
2019-03-22T15:01:12.014Z,20.50
2019-03-22T15:03:42.870Z,20.60
2019-03-22T15:06:13.651Z,20.40
2019-03-22T15:08:44.503Z,20.40
2019-03-22T15:11:15.265Z,20.40
2019-03-22T15:14:03.710Z,20.50
2019-03-22T15:16:43.449Z,20.40
2019-03-22T15:19:30.207Z,20.40
2019-03-22T15:22:18.612Z,20.20
2019-03-22T15:25:23.597Z,20.10
2019-03-22T15:28:13.446Z,19.90
2019-03-22T15:31:18.290Z,19.80
2019-03-22T15:34:12.124Z,19.70
2019-03-22T15:37:20.036Z,19.60
2019-03-22T15:40:02.888Z,19.60
2019-03-22T15:42:33.719Z,19.50
2019-03-22T15:45:05.409Z,19.40
2019-03-22T15:47:36.272Z,19.40
2019-03-22T15:50:08.154Z,19.40
2019-03-22T15:52:38.956Z,19.40
2019-03-22T15:55:09.866Z,19.40
2019-03-22T15:57:40.853Z,19.40
2019-03-22T16:00:14.653Z,19.30
2019-03-22T16:02:45.720Z,19.20
2019-03-22T16:05:17.353Z,19.20
2019-03-22T16:07:48.662Z,19.20
2019-03-22T16:10:20.133Z,19.10
2019-03-22T16:12:51.247Z,19.10
2019-03-22T16:15:22.496Z,19.10
2019-03-22T16:17:53.439Z,19.10
2019-03-22T16:20:24.994Z,19.00
2019-03-22T16:22:55.868Z,18.90
2019-03-22T16:25:26.835Z,18.90
2019-03-22T16:27:57.998Z,18.90
2019-03-22T16:30:28.839Z,18.90
2019-03-22T16:32:59.806Z,18.90
2019-03-22T16:35:30.755Z,18.80
2019-03-22T16:38:01.714Z,18.80
2019-03-22T16:40:32.775Z,18.70
2019-03-22T16:43:03.918Z,18.70
2019-03-22T16:45:42.618Z,18.60
2019-03-22T16:48:13.983Z,18.60
2019-03-22T16:50:45.003Z,18.50
2019-03-22T16:53:16.015Z,18.40
2019-03-22T16:55:47.114Z,18.40
2019-03-22T16:58:18.130Z,18.40
2019-03-22T17:00:50.062Z,18.40
2019-03-22T17:03:22.770Z,18.40
2019-03-22T17:05:53.749Z,18.30
2019-03-22T17:08:24.666Z,18.40
2019-03-22T17:10:56.002Z,18.30
2019-03-22T17:13:26.915Z,18.20
2019-03-22T17:15:58.018Z,18.10
2019-03-22T17:18:29.028Z,18.10
2019-03-22T17:20:59.966Z,18.00
2019-03-22T17:23:30.902Z,18.00
2019-03-22T17:26:01.859Z,17.90
2019-03-22T17:28:32.742Z,17.80
2019-03-22T17:31:03.617Z,17.70
2019-03-22T17:33:34.579Z,17.70
2019-03-22T17:36:05.546Z,17.60
2019-03-22T17:38:36.386Z,17.60
2019-03-22T17:41:07.303Z,17.60
2019-03-22T17:43:38.270Z,17.50
2019-03-22T17:46:09.126Z,17.50
2019-03-22T17:48:40.185Z,17.50
2019-03-22T17:51:11.138Z,17.40
2019-03-22T17:53:42.648Z,17.30
2019-03-22T17:56:13.921Z,17.30
2019-03-22T17:58:44.756Z,17.30
2019-03-22T18:01:15.621Z,17.30
2019-03-22T18:03:46.500Z,17.20
2019-03-22T18:06:17.359Z,17.20
2019-03-22T18:08:48.122Z,17.20
2019-03-22T18:11:19.051Z,17.10
2019-03-22T18:13:50.087Z,17.10
2019-03-22T18:16:20.849Z,17.10
2019-03-22T18:18:51.647Z,17.10
2019-03-22T18:21:22.427Z,17.10
2019-03-22T18:23:53.230Z,17.00
2019-03-22T18:26:24.074Z,17.00
2019-03-22T18:28:54.946Z,16.90
2019-03-22T18:31:25.979Z,16.90
2019-03-22T18:33:56.958Z,16.90
2019-03-22T18:36:28.137Z,16.90
2019-03-22T18:38:59.041Z,16.90
2019-03-22T18:41:29.972Z,16.90
2019-03-22T18:44:00.886Z,16.80
2019-03-22T18:46:31.698Z,16.80
2019-03-22T18:49:02.603Z,16.70
2019-03-22T18:51:33.478Z,16.70
2019-03-22T18:54:04.637Z,16.70
2019-03-22T18:56:35.625Z,16.60
2019-03-22T18:59:06.435Z,16.60
2019-03-22T19:01:37.246Z,16.50
2019-03-22T19:04:08.310Z,16.50
2019-03-22T19:06:39.126Z,16.50
2019-03-22T19:09:10.194Z,16.50
2019-03-22T19:11:41.097Z,16.50
2019-03-22T19:14:11.882Z,16.50
2019-03-22T19:16:42.665Z,16.50
2019-03-22T19:19:13.534Z,16.50
2019-03-22T19:21:44.327Z,16.40
2019-03-22T19:24:15.158Z,16.40
2019-03-22T19:26:46.177Z,16.30
2019-03-22T19:29:17.262Z,16.20
2019-03-22T19:31:48.346Z,16.20
2019-03-22T19:34:19.212Z,16.20
2019-03-22T19:36:50.246Z,16.20
2019-03-22T19:39:21.118Z,16.10
2019-03-22T19:41:52.023Z,16.10
2019-03-22T19:44:22.958Z,16.00
2019-03-22T19:46:53.823Z,16.00
2019-03-22T19:49:24.691Z,15.90
2019-03-22T19:51:55.571Z,15.90
2019-03-22T19:54:26.486Z,15.90
2019-03-22T19:56:57.350Z,15.90
2019-03-22T19:59:28.340Z,15.90
2019-03-22T20:02:01.932Z,15.90
2019-03-22T20:04:32.726Z,15.80
2019-03-22T20:07:03.502Z,15.80
2019-03-22T20:09:34.297Z,15.80
2019-03-22T20:12:05.114Z,15.60
2019-03-22T20:14:35.891Z,15.60
2019-03-22T20:17:06.706Z,15.60
2019-03-22T20:19:37.492Z,15.50
2019-03-22T20:22:08.302Z,15.40
2019-03-22T20:24:39.225Z,15.40
2019-03-22T20:27:10.046Z,15.50
2019-03-22T20:29:40.914Z,15.40
2019-03-22T20:32:11.706Z,15.40
2019-03-22T20:34:42.647Z,15.30
2019-03-22T20:37:13.511Z,15.20
2019-03-22T20:39:44.432Z,15.30
2019-03-22T20:42:15.261Z,15.20
2019-03-22T20:44:46.057Z,15.10
2019-03-22T20:47:16.919Z,15.20
2019-03-22T20:49:48.043Z,15.10
2019-03-22T20:52:18.844Z,15.10
2019-03-22T20:54:49.658Z,15.10
2019-03-22T20:57:20.568Z,15.20
2019-03-22T20:59:51.905Z,15.10
2019-03-22T21:02:22.901Z,15.00
2019-03-22T21:04:53.835Z,14.90
2019-03-22T21:07:24.885Z,15.00
2019-03-22T21:09:55.747Z,14.90
2019-03-22T21:12:26.827Z,14.70
2019-03-22T21:14:57.769Z,14.60
2019-03-22T21:17:28.857Z,14.70
2019-03-22T21:19:59.975Z,14.70
2019-03-22T21:22:31.318Z,14.70
2019-03-22T21:25:02.280Z,14.70
2019-03-22T21:27:34.060Z,14.70
2019-03-22T21:30:06.117Z,14.50
2019-03-22T21:32:44.689Z,14.30
2019-03-22T21:35:21.607Z,14.30
2019-03-22T21:37:42.837Z,14.20
2019-03-22T21:40:15.071Z,14.10
2019-03-22T21:42:47.801Z,14.00
2019-03-22T21:45:19.171Z,14.10
2019-03-22T21:47:50.291Z,14.10
2019-03-22T21:50:21.107Z,14.10
2019-03-22T21:52:52.081Z,13.90
2019-03-22T21:55:22.911Z,13.90
2019-03-22T21:57:53.734Z,14.00
2019-03-22T22:00:24.764Z,14.10
2019-03-22T22:02:55.579Z,14.10
2019-03-22T22:05:26.547Z,13.90
2019-03-22T22:07:57.459Z,14.00
2019-03-22T22:10:28.340Z,14.00
2019-03-22T22:12:59.400Z,14.00
2019-03-22T22:15:30.310Z,14.10
2019-03-22T22:18:01.230Z,14.00
2019-03-22T22:20:32.186Z,14.10
2019-03-22T22:23:03.018Z,14.10
2019-03-22T22:25:33.858Z,14.10
2019-03-22T22:28:04.955Z,14.10
2019-03-22T22:30:35.767Z,14.10
2019-03-22T22:33:06.603Z,14.20
2019-03-22T22:35:37.387Z,14.00
2019-03-22T22:38:08.297Z,14.00
2019-03-22T22:40:39.058Z,14.10
2019-03-22T22:43:10.118Z,13.90
2019-03-22T22:45:40.906Z,13.70
2019-03-22T22:48:11.806Z,13.60
2019-03-22T22:50:42.754Z,13.60
2019-03-22T22:53:13.615Z,13.50
2019-03-22T22:55:44.427Z,13.40
2019-03-22T22:58:15.290Z,13.30
2019-03-22T23:00:47.028Z,12.90
2019-03-22T23:03:18.068Z,12.90
2019-03-22T23:05:48.855Z,13.00
2019-03-22T23:08:19.638Z,12.90
2019-03-22T23:10:50.625Z,12.90
2019-03-22T23:13:21.470Z,12.80
2019-03-22T23:15:52.505Z,12.80
2019-03-22T23:18:23.515Z,12.80
2019-03-22T23:20:54.446Z,12.70
2019-03-22T23:23:25.363Z,12.70
2019-03-22T23:25:56.439Z,12.80
2019-03-22T23:28:27.479Z,12.70
2019-03-22T23:30:58.390Z,12.70
2019-03-22T23:33:29.302Z,12.70
2019-03-22T23:36:00.163Z,12.80
2019-03-22T23:38:31.147Z,12.90
2019-03-22T23:41:01.997Z,12.60
2019-03-22T23:43:33.004Z,12.60
2019-03-22T23:46:03.852Z,12.50
2019-03-22T23:48:34.738Z,12.50
2019-03-22T23:51:08.375Z,12.40
2019-03-22T23:53:39.272Z,12.40
2019-03-22T23:56:10.263Z,12.40
2019-03-22T23:58:41.324Z,12.50
